Time;durP1;ratioP1;P1;durP2;ratioP2;P2;SDS_P1;SDS_P2;PMS_P1;PMS_P2;Temp;Humidity;BMP_temperature;BMP_pressure;BME280_temperature;BME280_humidity;BME280_pressure;Samples;Min_cycle;Max_cycle;Signal;HPM_P1;HPM_P2
2023/04/06 00:00:48;;;;;;;58.20;37.38;;;;;;;-0.19;91.86;100102.50;5053483;28;20020;-75
2023/04/06 00:03:13;;;;;;;59.70;37.38;;;;;;;-0.21;91.76;100093.09;5053917;28;20446;-75
2023/04/06 00:05:39;;;;;;;60.45;38.03;;;;;;;-0.21;91.97;100090.53;5053546;28;20100;-76
2023/04/06 00:08:05;;;;;;;56.97;37.53;;;;;;;-0.23;91.65;100088.00;5053719;28;20029;-75
2023/04/06 00:10:30;;;;;;;59.92;36.95;;;;;;;-0.16;91.47;100107.66;5053605;28;20104;-75
2023/04/06 00:12:57;;;;;;;64.28;40.65;;;;;;;-0.20;91.76;100105.06;5053456;28;20461;-75
2023/04/06 00:15:22;;;;;;;63.25;37.85;;;;;;;-0.31;92.09;100089.66;5053358;28;20118;-75
2023/04/06 00:17:48;;;;;;;63.58;41.05;;;;;;;-0.24;91.80;100099.09;5052717;28;20555;-76
2023/04/06 00:20:13;;;;;;;62.38;40.50;;;;;;;-0.19;93.25;100102.50;5053014;28;20033;-76
2023/04/06 00:22:39;;;;;;;66.00;40.53;;;;;;;-0.14;92.75;100110.22;5053230;28;20116;-76
2023/04/06 00:25:04;;;;;;;67.63;39.85;;;;;;;-0.29;93.91;100085.41;5053377;28;20366;-75
2023/04/06 00:27:30;;;;;;;62.78;40.83;;;;;;;-0.26;93.74;100081.13;5051688;28;20412;-75
2023/04/06 00:29:55;;;;;;;61.92;41.25;;;;;;;-0.16;92.84;100097.41;5052855;28;20036;-75
2023/04/06 00:32:21;;;;;;;83.20;50.08;;;;;;;-0.24;92.76;100086.28;5053435;28;20048;-75
2023/04/06 00:34:46;;;;;;;103.80;59.22;;;;;;;-0.13;92.29;100107.63;5052793;28;20029;-75
2023/04/06 00:37:12;;;;;;;70.93;47.20;;;;;;;-0.31;93.51;100085.38;5053184;28;20025;-76
2023/04/06 00:39:37;;;;;;;77.45;47.05;;;;;;;-0.22;93.25;100093.97;5052957;28;20025;-75
2023/04/06 00:42:10;;;;;;;106.63;61.20;;;;;;;-0.32;92.42;100078.56;5053018;28;20048;-75
2023/04/06 00:44:35;;;;;;;90.80;55.35;;;;;;;-0.33;92.22;100076.88;5052884;28;20040;-76
2023/04/06 00:47:01;;;;;;;78.85;48.60;;;;;;;-0.31;92.09;100085.38;5053312;28;20393;-75
2023/04/06 00:49:26;;;;;;;81.20;46.63;;;;;;;-0.21;91.26;100100.78;5052969;28;20397;-76
2023/04/06 00:51:52;;;;;;;70.65;47.15;;;;;;;-0.26;91.62;100098.19;5052661;28;20033;-76
2023/04/06 00:54:18;;;;;;;79.18;48.67;;;;;;;-0.19;91.89;100112.75;5052639;28;20031;-76
2023/04/06 00:56:43;;;;;;;78.15;49.17;;;;;;;-0.35;92.44;100090.50;5052525;28;20033;-75
2023/04/06 00:59:10;;;;;;;71.78;49.90;;;;;;;-0.24;92.41;100100.78;5052547;28;20025;-75
2023/04/06 01:01:36;;;;;;;110.60;61.55;;;;;;;-0.36;92.86;100087.06;5052563;28;20024;-75
2023/04/06 01:04:02;;;;;;;119.90;62.70;;;;;;;-0.37;92.52;100081.97;5053007;28;20106;-75
2023/04/06 01:06:28;;;;;;;154.90;78.63;;;;;;;-0.15;91.64;100106.78;5052626;28;20055;-75
2023/04/06 01:08:53;;;;;;;171.63;84.20;;;;;;;-0.14;91.66;100105.94;5052441;28;20060;-75
2023/04/06 01:11:18;;;;;;;137.88;72.50;;;;;;;-0.18;91.83;100100.81;5052453;28;20629;-75
2023/04/06 01:13:44;;;;;;;78.97;49.22;;;;;;;-0.11;92.88;100099.97;5052121;28;20079;-76
2023/04/06 01:16:09;;;;;;;79.22;49.17;;;;;;;-0.23;92.29;100082.88;5052235;28;20020;-75
2023/04/06 01:18:35;;;;;;;75.28;46.45;;;;;;;-0.03;92.50;100104.28;5052446;28;20091;-75
2023/04/06 01:21:01;;;;;;;70.25;44.78;;;;;;;-0.29;92.49;100058.13;5052247;28;20083;-76
2023/04/06 01:23:26;;;;;;;65.68;44.45;;;;;;;-0.19;92.12;100064.09;5052188;28;20445;-75
2023/04/06 01:25:52;;;;;;;67.35;43.17;;;;;;;0.01;91.71;100099.19;5051965;28;20487;-75
2023/04/06 01:28:17;;;;;;;64.75;43.42;;;;;;;-0.14;91.98;100074.38;5051868;28;20495;-75
2023/04/06 01:30:42;;;;;;;70.90;43.28;;;;;;;-0.06;91.51;100076.09;5051673;28;20492;-75
2023/04/06 01:33:08;;;;;;;65.07;43.63;;;;;;;-0.07;91.16;100079.53;5052237;28;20029;-75
2023/04/06 01:35:33;;;;;;;59.47;40.63;;;;;;;0.11;91.43;100094.06;5052119;28;20048;-75
2023/04/06 01:37:58;;;;;;;70.03;43.05;;;;;;;0.16;91.44;100106.88;5051862;28;20116;-75
2023/04/06 01:40:23;;;;;;;64.82;43.40;;;;;;;0.19;92.31;100096.66;5052004;28;20063;-75
2023/04/06 01:42:49;;;;;;;61.70;43.28;;;;;;;0.08;91.63;100080.41;5051631;28;20063;-75
2023/04/06 01:45:14;;;;;;;63.58;42.63;;;;;;;0.23;91.39;100098.38;5052083;28;20021;-75
2023/04/06 01:47:40;;;;;;;66.20;43.70;;;;;;;-0.04;91.79;100051.38;5051767;28;20025;-75
2023/04/06 01:50:06;;;;;;;66.72;43.33;;;;;;;0.22;91.33;100084.72;5051971;28;20021;-75
2023/04/06 01:52:33;;;;;;;66.68;44.35;;;;;;;0.09;92.14;100064.22;5051852;28;20052;-75
2023/04/06 01:54:58;;;;;;;64.80;42.47;;;;;;;0.23;92.45;100095.81;5051468;28;20433;-75
2023/04/06 01:57:25;;;;;;;67.50;44.95;;;;;;;0.21;92.73;100089.81;5051638;28;20420;-75
2023/04/06 01:59:50;;;;;;;77.03;47.45;;;;;;;0.05;92.20;100067.63;5051648;28;20025;-75
2023/04/06 02:02:15;;;;;;;81.82;49.70;;;;;;;0.23;92.59;100091.53;5051902;28;20025;-76
2023/04/06 02:04:41;;;;;;;84.35;51.05;;;;;;;0.05;92.41;100063.34;5051384;28;20021;-75
2023/04/06 02:07:06;;;;;;;74.10;47.45;;;;;;;0.16;92.88;100084.69;5051692;28;20047;-76
2023/04/06 02:09:31;;;;;;;79.22;47.53;;;;;;;0.19;92.87;100101.78;5051612;28;20376;-75
2023/04/06 02:11:57;;;;;;;75.75;46.92;;;;;;;-0.03;92.94;100067.59;5051257;28;20580;-75
2023/04/06 02:14:25;;;;;;;81.35;50.08;;;;;;;0.16;92.61;100092.38;5051734;28;20473;-75
2023/04/06 02:16:50;;;;;;;71.72;45.45;;;;;;;0.05;94.29;100068.47;5051446;28;20040;-76
2023/04/06 02:19:16;;;;;;;64.72;42.47;;;;;;;0.21;94.69;100094.94;5051494;28;20029;-75
2023/04/06 02:21:42;;;;;;;66.88;41.42;;;;;;;0.21;93.74;100085.59;5051392;28;20032;-75
2023/04/06 02:24:07;;;;;;;65.80;42.45;;;;;;;0.19;93.55;100086.41;5051514;28;20469;-75
2023/04/06 02:26:32;;;;;;;59.88;39.70;;;;;;;0.21;93.42;100087.25;5051450;28;20025;-75
2023/04/06 02:28:58;;;;;;;61.70;39.63;;;;;;;0.06;93.62;100065.03;5051126;28;20045;-75
2023/04/06 02:31:23;;;;;;;57.22;41.83;;;;;;;0.12;94.09;100082.13;5051704;28;20379;-76
2023/04/06 02:33:48;;;;;;;62.50;39.22;;;;;;;-0.07;94.00;100070.97;5051100;28;20033;-75
2023/04/06 02:36:13;;;;;;;75.85;45.00;;;;;;;-0.46;94.43;100010.25;5051323;28;20025;-75
2023/04/06 02:38:39;;;;;;;100.90;55.30;;;;;;;0.00;94.11;100093.22;5051406;28;20025;-75
2023/04/06 02:41:04;;;;;;;125.85;62.50;;;;;;;0.01;94.17;100104.31;5051274;28;20029;-75
2023/04/06 02:43:30;;;;;;;110.25;61.80;;;;;;;-0.36;93.54;100046.13;5055515;28;20029;-75
2023/04/06 02:45:55;;;;;;;98.45;52.72;;;;;;;-0.10;93.93;100102.53;5053838;28;20028;-75
2023/04/06 02:48:20;;;;;;;134.55;69.03;;;;;;;-0.18;94.60;100106.78;5055561;28;20040;-75
2023/04/06 02:50:46;;;;;;;169.50;94.82;;;;;;;-0.33;95.30;100099.91;5054969;28;20028;-75
2023/04/06 02:53:11;;;;;;;169.68;90.70;;;;;;;-0.47;94.70;100088.72;5055122;28;20106;-75
2023/04/06 02:55:36;;;;;;;157.75;86.95;;;;;;;-0.52;95.14;100087.84;5054902;28;20025;-75
2023/04/06 02:58:01;;;;;;;140.65;79.80;;;;;;;-0.52;94.76;100101.50;5054901;28;20067;-75
2023/04/06 03:00:27;;;;;;;141.50;79.22;;;;;;;-0.55;94.63;100098.94;5055110;28;20071;-75
2023/04/06 03:02:52;;;;;;;126.70;72.47;;;;;;;-0.63;94.91;100086.91;5054751;28;20076;-75
2023/04/06 03:05:17;;;;;;;96.88;56.85;;;;;;;-0.49;94.86;100121.13;5055167;28;20037;-75
2023/04/06 03:07:43;;;;;;;73.57;49.05;;;;;;;-0.51;94.62;100121.13;5054651;28;20021;-75
2023/04/06 03:10:09;;;;;;;71.75;47.22;;;;;;;-0.54;95.17;100110.88;5054917;28;20035;-75
2023/04/06 03:12:34;;;;;;;88.47;48.33;;;;;;;-0.67;94.61;100090.34;5054837;28;20105;-75
2023/04/06 03:15:00;;;;;;;81.60;51.42;;;;;;;-0.60;94.92;100110.81;5054467;28;20112;-75
2023/04/06 03:17:25;;;;;;;72.22;46.50;;;;;;;-0.54;94.82;100120.25;5054714;28;20116;-75
2023/04/06 03:19:51;;;;;;;71.88;46.65;;;;;;;-0.67;94.88;100106.53;5054395;28;20497;-75
2023/04/06 03:22:16;;;;;;;63.63;41.00;;;;;;;-0.76;94.55;100096.22;5054568;28;20048;-75
2023/04/06 03:24:41;;;;;;;67.05;44.78;;;;;;;-0.80;95.25;100099.59;5054427;28;20029;-75
2023/04/06 03:27:07;;;;;;;66.03;42.40;;;;;;;-0.82;94.03;100104.72;5054175;28;20480;-75
2023/04/06 03:29:32;;;;;;;64.40;43.03;;;;;;;-0.84;93.30;100106.44;5054555;28;20046;-75
2023/04/06 03:31:57;;;;;;;61.03;41.80;;;;;;;-0.80;93.29;100107.28;5054253;28;20029;-75
2023/04/06 03:34:23;;;;;;;58.90;40.05;;;;;;;-0.87;93.30;100101.28;5054351;28;20111;-75
2023/04/06 03:36:48;;;;;;;66.13;41.50;;;;;;;-0.72;93.08;100138.03;5054495;28;20419;-75
2023/04/06 03:39:13;;;;;;;64.13;41.45;;;;;;;-0.78;92.79;100136.28;5054276;28;20436;-75
2023/04/06 03:41:38;;;;;;;61.70;41.13;;;;;;;-0.79;92.90;100135.44;5053961;28;20029;-75
2023/04/06 03:44:05;;;;;;;64.03;41.90;;;;;;;-0.97;92.33;100108.88;5054100;28;20040;-75
2023/04/06 03:46:30;;;;;;;67.80;42.50;;;;;;;-0.96;93.11;100124.25;5054399;28;20115;-75
2023/04/06 03:48:56;;;;;;;60.78;40.28;;;;;;;-0.91;92.74;100137.91;5053774;28;20104;-75
2023/04/06 03:51:21;;;;;;;61.65;40.97;;;;;;;-1.09;93.12;100109.66;5054079;28;20029;-76
2023/04/06 03:53:46;;;;;;;72.45;44.13;;;;;;;-0.92;92.65;100143.88;5052460;28;20464;-76
2023/04/06 03:56:12;;;;;;;55.42;39.33;;;;;;;-1.07;93.35;100130.97;5053751;28;20025;-76
2023/04/06 03:58:37;;;;;;;61.35;41.15;;;;;;;-1.09;92.53;100132.66;5053835;28;20025;-76
2023/04/06 04:01:02;;;;;;;66.68;42.97;;;;;;;-1.27;92.33;100102.66;5053959;28;20025;-76
2023/04/06 04:03:28;;;;;;;60.47;38.92;;;;;;;-1.02;92.97;100152.28;5053747;28;20488;-76
2023/04/06 04:05:55;;;;;;;61.08;39.00;;;;;;;-0.99;92.81;100161.69;5053529;28;20025;-76
2023/04/06 04:08:21;;;;;;;60.08;37.22;;;;;;;-1.19;92.38;100129.16;5053632;28;20538;-76
2023/04/06 04:10:46;;;;;;;58.45;37.78;;;;;;;-1.07;92.80;100148.84;5053527;28;20063;-76
2023/04/06 04:13:11;;;;;;;54.50;37.10;;;;;;;-1.03;92.86;100158.25;5053414;28;20366;-76
2023/04/06 04:15:37;;;;;;;59.47;39.38;;;;;;;-1.05;92.03;100155.69;5052128;28;20350;-76
2023/04/06 04:18:02;;;;;;;61.47;40.58;;;;;;;-1.07;91.57;100154.81;5053244;28;20028;-76
2023/04/06 04:20:28;;;;;;;59.70;38.92;;;;;;;-1.18;91.43;100135.13;5053487;28;20033;-76
2023/04/06 04:22:53;;;;;;;63.72;41.38;;;;;;;-1.26;91.57;100125.69;5053173;28;20029;-76
2023/04/06 04:25:19;;;;;;;61.80;38.50;;;;;;;-1.07;91.85;100162.50;5053235;28;20035;-76
2023/04/06 04:27:44;;;;;;;59.35;38.38;;;;;;;-1.05;91.33;100159.97;5053162;28;20049;-76
2023/04/06 04:30:10;;;;;;;56.63;38.83;;;;;;;-1.27;91.68;100126.53;5052931;28;20039;-76
2023/04/06 04:32:35;;;;;;;66.82;40.58;;;;;;;-1.15;92.13;100159.00;5053293;28;20028;-76
2023/04/06 04:35:01;;;;;;;64.80;40.97;;;;;;;-1.14;92.13;100153.03;5052907;28;20518;-76
2023/04/06 04:37:26;;;;;;;65.03;40.58;;;;;;;-1.10;91.54;100157.34;5053093;28;20025;-76
2023/04/06 04:39:51;;;;;;;86.70;47.50;;;;;;;-1.20;91.43;100134.25;5052733;28;20522;-76
2023/04/06 04:42:17;;;;;;;77.07;44.92;;;;;;;-1.18;91.38;100128.31;5053206;28;20112;-76
2023/04/06 04:44:42;;;;;;;74.95;46.10;;;;;;;-1.02;91.27;100158.25;5053138;28;20362;-76
2023/04/06 04:47:07;;;;;;;100.18;55.10;;;;;;;-0.97;90.78;100162.56;5053127;28;20025;-76
2023/04/06 04:49:33;;;;;;;90.30;49.67;;;;;;;-0.89;90.80;100160.91;5053276;28;20037;-76
2023/04/06 04:51:58;;;;;;;90.45;48.42;;;;;;;-0.81;90.78;100162.69;5052699;28;20033;-76
2023/04/06 04:54:23;;;;;;;90.97;50.45;;;;;;;-0.83;90.56;100130.31;5052757;28;20041;-76
2023/04/06 04:56:50;;;;;;;91.45;50.10;;;;;;;-0.59;90.02;100152.59;5053077;28;20036;-76
2023/04/06 04:59:16;;;;;;;83.30;48.92;;;;;;;-0.43;89.57;100149.31;5052878;28;20183;-76
2023/04/06 05:01:41;;;;;;;84.68;47.47;;;;;;;-0.34;88.60;100145.94;5052728;28;20025;-76
2023/04/06 05:04:06;;;;;;;77.30;46.30;;;;;;;-0.10;88.55;100163.13;5051986;28;20025;-76
2023/04/06 05:06:32;;;;;;;72.15;43.45;;;;;;;0.01;88.24;100163.19;5052551;28;20024;-76
2023/04/06 05:08:57;;;;;;;79.10;45.72;;;;;;;0.10;87.70;100150.44;5052188;28;20083;-76
2023/04/06 05:11:22;;;;;;;73.05;44.13;;;;;;;0.25;86.27;100137.66;5052649;28;20021;-76
2023/04/06 05:13:48;;;;;;;68.22;41.90;;;;;;;0.60;85.80;100157.41;5052866;28;20029;-76
2023/04/06 05:16:13;;;;;;;63.53;40.53;;;;;;;0.75;84.98;100144.59;5052045;28;20108;-76
2023/04/06 05:18:38;;;;;;;64.10;39.70;;;;;;;1.14;85.15;100140.34;5052278;28;20028;-76
2023/04/06 05:21:04;;;;;;;63.10;38.85;;;;;;;1.76;83.86;100159.91;5052095;28;20033;-76
2023/04/06 05:23:30;;;;;;;59.63;36.50;;;;;;;2.34;82.65;100164.84;5052195;28;20464;-76
2023/04/06 05:25:55;;;;;;;80.03;43.90;;;;;;;3.08;80.57;100152.38;5052093;28;20025;-76
2023/04/06 05:28:21;;;;;;;73.53;42.47;;;;;;;4.06;77.69;100147.94;5052099;28;20466;-75
2023/04/06 05:30:46;;;;;;;132.15;62.65;;;;;;;5.02;72.96;100138.00;5052119;28;20392;-76
2023/04/06 05:33:12;;;;;;;113.32;50.15;;;;;;;5.56;69.81;100158.56;5051610;28;20112;-76
2023/04/06 05:35:37;;;;;;;97.05;46.92;;;;;;;5.46;67.94;100155.31;5052126;28;20021;-75
2023/04/06 05:38:02;;;;;;;78.15;39.85;;;;;;;5.35;67.68;100141.72;5052081;28;20040;-75
2023/04/06 05:40:28;;;;;;;74.35;37.17;;;;;;;5.51;66.98;100153.50;5052091;28;20029;-76
2023/04/06 05:42:54;;;;;;;84.13;44.05;;;;;;;5.83;67.14;100131.38;5052016;28;20037;-75
2023/04/06 05:45:21;;;;;;;84.63;39.97;;;;;;;6.66;64.10;100140.88;5052147;28;20112;-75
2023/04/06 05:47:46;;;;;;;124.28;58.70;;;;;;;7.44;62.38;100128.59;5052112;28;20028;-75
2023/04/06 05:50:12;;;;;;;89.95;44.40;;;;;;;7.87;60.29;100130.88;5051743;28;20052;-75
2023/04/06 05:52:38;;;;;;;121.85;59.80;;;;;;;7.77;57.86;100157.97;5051779;28;20033;-75
2023/04/06 05:55:04;;;;;;;66.32;35.67;;;;;;;7.37;59.23;100153.81;5051793;28;20123;-75
2023/04/06 05:57:29;;;;;;;161.55;73.28;;;;;;;7.22;59.72;100149.88;5051920;28;20536;-75
2023/04/06 05:59:55;;;;;;;148.23;70.22;;;;;;;7.63;59.45;100158.34;5052058;28;20111;-75
2023/04/06 06:02:21;;;;;;;57.25;32.88;;;;;;;7.50;57.84;100120.69;5051943;28;20380;-75
2023/04/06 06:04:47;;;;;;;103.38;47.50;;;;;;;7.82;57.80;100127.56;5051961;28;20495;-75
2023/04/06 06:07:12;;;;;;;69.88;33.53;;;;;;;7.95;57.74;100152.25;5051640;28;20029;-75
2023/04/06 06:09:37;;;;;;;37.20;25.02;;;;;;;7.67;57.32;100157.38;5051693;28;20024;-75
2023/04/06 06:12:03;;;;;;;38.80;24.77;;;;;;;7.47;57.30;100133.72;5051982;28;20408;-76
2023/04/06 06:14:28;;;;;;;35.67;23.30;;;;;;;7.54;56.65;100162.88;5051700;28;20468;-75
2023/04/06 06:16:54;;;;;;;40.58;25.15;;;;;;;7.96;56.55;100156.56;5053093;28;20480;-76
2023/04/06 06:19:19;;;;;;;40.53;24.10;;;;;;;8.35;55.85;100124.34;5055489;28;20052;-76
2023/04/06 06:21:45;;;;;;;39.85;24.20;;;;;;;8.84;54.69;100143.63;5056094;28;20029;-76
2023/04/06 06:24:10;;;;;;;36.03;24.55;;;;;;;8.70;54.19;100123.28;5055466;28;20025;-76
2023/04/06 06:26:37;;;;;;;41.25;26.92;;;;;;;9.53;53.75;100139.59;5056183;28;20044;-76
2023/04/06 06:29:03;;;;;;;40.88;25.55;;;;;;;10.47;51.53;100147.50;5055277;28;20508;-76
2023/04/06 06:31:28;;;;;;;37.83;25.08;;;;;;;10.87;50.44;100122.47;5055568;28;20037;-76
2023/04/06 06:33:56;;;;;;;49.58;29.13;;;;;;;10.81;50.46;100143.56;5055928;28;20090;-76
2023/04/06 06:36:21;;;;;;;54.35;32.78;;;;;;;10.64;50.63;100112.97;5055403;28;20056;-76
2023/04/06 06:38:46;;;;;;;38.35;27.75;;;;;;;10.99;49.67;100142.81;5055722;28;20098;-76
2023/04/06 06:41:12;;;;;;;42.15;27.23;;;;;;;11.44;48.96;100129.66;5055146;28;20051;-76
2023/04/06 06:43:38;;;;;;;44.80;27.55;;;;;;;11.90;48.83;100142.50;5055451;28;20108;-76
2023/04/06 06:46:04;;;;;;;35.63;24.50;;;;;;;11.45;49.06;100130.50;5055125;28;20033;-76
2023/04/06 06:48:30;;;;;;;49.80;33.83;;;;;;;11.52;48.55;100136.31;5055354;28;20036;-76
2023/04/06 06:50:55;;;;;;;53.20;36.40;;;;;;;11.43;48.65;100143.63;5055268;28;20510;-76
2023/04/06 06:53:21;;;;;;;40.47;27.50;;;;;;;11.98;48.55;100153.47;5054920;28;20067;-76
2023/04/06 06:55:48;;;;;;;47.58;32.35;;;;;;;12.44;47.92;100159.22;5055147;28;20372;-76
2023/04/06 06:58:13;;;;;;;48.78;31.42;;;;;;;13.29;47.22;100127.28;5053736;28;20102;-76
2023/04/06 07:00:39;;;;;;;54.00;34.90;;;;;;;14.50;45.08;100139.28;5055174;28;20021;-76
2023/04/06 07:03:04;;;;;;;40.47;27.60;;;;;;;13.84;45.39;100158.50;5054828;28;20068;-77
2023/04/06 07:05:30;;;;;;;36.35;26.17;;;;;;;12.81;47.60;100149.63;5054958;28;20025;-76
2023/04/06 07:07:55;;;;;;;35.50;26.05;;;;;;;13.88;46.98;100144.31;5055227;28;20071;-76
2023/04/06 07:10:21;;;;;;;38.95;28.02;;;;;;;15.68;45.04;100149.97;5054907;28;20064;-76
2023/04/06 07:12:47;;;;;;;67.55;45.13;;;;;;;17.09;42.07;100156.94;5054811;28;20029;-77
2023/04/06 07:15:12;;;;;;;36.97;27.10;;;;;;;18.70;40.07;100148.53;5054557;28;20021;-77
2023/04/06 07:17:38;;;;;;;34.38;26.70;;;;;;;20.33;38.60;100150.31;5055027;28;20396;-77
2023/04/06 07:20:03;;;;;;;32.85;25.23;;;;;;;21.11;35.66;100122.78;5054429;28;20112;-77
2023/04/06 07:22:29;;;;;;;58.08;45.25;;;;;;;20.92;35.62;100134.91;5054455;28;20059;-77
2023/04/06 07:24:54;;;;;;;44.22;32.08;;;;;;;20.73;34.90;100155.94;5054612;28;20029;-77
2023/04/06 07:27:20;;;;;;;51.53;38.50;;;;;;;21.46;35.16;100142.91;5053945;28;20096;-77
2023/04/06 07:29:45;;;;;;;29.75;23.40;;;;;;;20.65;34.94;100150.41;5054625;28;20052;-77
2023/04/06 07:32:10;;;;;;;32.08;23.50;;;;;;;21.22;34.99;100145.75;5054096;28;20032;-77
2023/04/06 07:34:36;;;;;;;33.83;27.25;;;;;;;21.29;35.03;100145.13;5054433;28;20111;-77
2023/04/06 07:37:02;;;;;;;37.13;28.48;;;;;;;20.93;35.15;100131.31;5054314;28;20025;-77
2023/04/06 07:39:28;;;;;;;36.38;29.10;;;;;;;21.74;34.94;100157.28;5054279;28;20017;-77
2023/04/06 07:41:53;;;;;;;42.75;33.53;;;;;;;20.90;35.02;100144.81;5054300;28;20048;-77
2023/04/06 07:44:19;;;;;;;35.78;29.33;;;;;;;21.65;34.92;100140.38;5054091;28;20148;-77
2023/04/06 07:46:44;;;;;;;36.03;27.90;;;;;;;19.89;36.05;100146.72;5054299;28;20029;-77
2023/04/06 07:49:10;;;;;;;35.47;27.38;;;;;;;18.28;38.12;100157.69;5052820;28;20021;-77
2023/04/06 07:51:37;;;;;;;35.80;27.73;;;;;;;17.71;39.01;100157.16;5053940;28;20513;-77
2023/04/06 07:54:02;;;;;;;42.55;34.55;;;;;;;19.97;37.01;100143.44;5045848;28;20036;-77
2023/04/06 07:56:28;;;;;;;39.50;28.58;;;;;;;20.50;35.88;100131.31;5036035;28;20029;-77
2023/04/06 07:58:56;;;;;;;28.42;23.48;;;;;;;20.80;34.82;100157.09;5033925;28;20029;-78
2023/04/06 08:01:21;;;;;;;39.80;30.67;;;;;;;20.28;35.45;100161.25;5033511;28;20029;-78
2023/04/06 08:03:46;;;;;;;32.17;25.05;;;;;;;20.52;34.93;100169.09;5032408;28;20075;-83
2023/04/06 08:06:12;;;;;;;29.33;24.05;;;;;;;19.95;35.42;100154.16;5031968;28;20032;-77
2023/04/06 08:08:37;;;;;;;37.10;25.40;;;;;;;18.79;36.29;100139.94;5033992;28;20397;-78
2023/04/06 08:11:03;;;;;;;34.50;23.35;;;;;;;18.30;36.19;100161.91;5039642;28;20503;-78
2023/04/06 08:13:28;;;;;;;36.80;26.52;;;;;;;17.45;36.86;100163.38;5053226;28;20061;-77
2023/04/06 08:15:54;;;;;;;44.00;30.67;;;;;;;15.20;39.61;100144.00;5053129;28;20385;-77
2023/04/06 08:18:19;;;;;;;30.05;22.10;;;;;;;13.85;41.21;100150.53;5051796;28;20029;-76
2023/04/06 08:20:44;;;;;;;35.33;26.02;;;;;;;12.43;43.12;100167.94;5051606;28;20075;-76
2023/04/06 08:23:10;;;;;;;28.02;17.35;;;;;;;11.44;44.11;100176.59;5053127;28;20029;-77
2023/04/06 08:25:36;;;;;;;41.33;28.35;;;;;;;10.69;48.21;100166.59;5053265;28;20036;-76
2023/04/06 08:28:02;;;;;;;47.25;42.38;;;;;;;10.09;49.36;100173.16;5053288;28;20045;-78
2023/04/06 08:30:29;;;;;;;17.73;11.80;;;;;;;9.65;45.23;100138.31;5053044;28;20204;-76
2023/04/06 08:32:54;;;;;;;33.35;20.60;;;;;;;9.31;47.49;100155.06;5053362;28;20039;-75
2023/04/06 08:35:20;;;;;;;28.83;18.90;;;;;;;9.07;48.38;100187.06;5052503;28;20104;-75
2023/04/06 08:37:45;;;;;;;29.45;19.63;;;;;;;9.02;48.73;100186.34;5053313;28;20469;-76
2023/04/06 08:40:12;;;;;;;32.00;17.08;;;;;;;8.57;47.49;100164.34;5052533;28;20021;-75
2023/04/06 08:42:43;;;;;;;20.08;14.45;;;;;;;7.73;49.26;100143.38;5053150;28;20510;-75
2023/04/06 08:45:09;;;;;;;25.10;17.85;;;;;;;7.92;51.13;100165.34;5052506;28;20086;-76
2023/04/06 08:47:36;;;;;;;23.77;15.90;;;;;;;7.27;51.18;100105.72;5052869;28;20025;-75
2023/04/06 08:50:04;;;;;;;21.75;16.27;;;;;;;7.99;50.69;100192.78;5052698;28;20040;-75
2023/04/06 08:52:32;;;;;;;19.38;14.85;;;;;;;7.75;50.85;100162.31;5052190;28;20037;-75
2023/04/06 08:54:57;;;;;;;23.77;16.73;;;;;;;7.97;51.10;100183.38;5052734;28;20035;-75
2023/04/06 08:57:23;;;;;;;24.50;15.82;;;;;;;7.86;51.65;100157.72;5052402;28;20107;-75
2023/04/06 08:59:50;;;;;;;18.88;12.95;;;;;;;7.67;50.84;100172.91;5052623;28;20477;-75
2023/04/06 09:02:18;;;;;;;15.70;10.60;;;;;;;7.76;49.95;100182.19;5051774;28;20025;-75
2023/04/06 09:04:47;;;;;;;16.33;11.23;;;;;;;7.50;50.09;100164.75;5051249;28;20056;-75
2023/04/06 09:07:14;;;;;;;15.20;10.45;;;;;;;7.56;51.03;100149.00;5052242;28;20437;-75
2023/04/06 09:09:47;;;;;;;19.70;12.48;;;;;;;7.32;50.94;100172.97;5052426;28;20488;-75
2023/04/06 09:12:33;;;;;;;18.75;12.57;;;;;;;7.50;51.28;100175.09;5051696;28;20469;-75
2023/04/06 09:15:00;;;;;;;19.73;13.07;;;;;;;7.47;51.89;100177.75;5051687;28;20040;-75
2023/04/06 09:17:30;;;;;;;20.08;13.55;;;;;;;7.65;52.46;100168.66;5051974;28;20029;-75
2023/04/06 09:19:57;;;;;;;20.17;12.75;;;;;;;7.44;52.40;100165.72;5052179;28;20029;-75
2023/04/06 09:22:24;;;;;;;32.88;21.95;;;;;;;7.25;52.76;100138.59;5051536;28;20025;-75
2023/04/06 09:24:52;;;;;;;63.13;56.47;;;;;;;7.48;53.47;100169.09;5052015;28;20032;-75
2023/04/06 09:27:18;;;;;;;22.00;14.38;;;;;;;7.59;53.13;100171.41;5051407;28;20760;-75
2023/04/06 09:29:45;;;;;;;18.65;12.73;;;;;;;7.03;53.06;100171.91;5051907;28;20040;-75
2023/04/06 09:32:16;;;;;;;19.55;12.68;;;;;;;7.23;52.16;100169.69;5051308;28;20025;-75
2023/04/06 09:34:42;;;;;;;23.45;15.30;;;;;;;7.27;50.86;100160.13;5051626;28;20025;-75
2023/04/06 09:37:19;;;;;;;17.08;11.90;;;;;;;7.47;51.55;100163.06;5051692;28;20024;-75
2023/04/06 09:39:46;;;;;;;17.67;11.95;;;;;;;7.44;50.26;100151.91;5051727;28;20484;-75
2023/04/06 09:42:26;;;;;;;20.00;12.27;;;;;;;7.38;50.55;100165.91;5051457;28;20025;-75
2023/04/06 09:44:52;;;;;;;17.08;11.82;;;;;;;7.63;50.62;100150.56;5051825;28;20025;-75
2023/04/06 09:47:18;;;;;;;17.85;12.68;;;;;;;7.74;50.61;100139.88;5051634;28;20021;-75
2023/04/06 09:49:48;;;;;;;21.30;14.38;;;;;;;8.06;50.31;100157.16;5051780;28;20029;-75
2023/04/06 09:52:14;;;;;;;14.57;9.77;;;;;;;7.65;49.69;100143.56;5051007;28;20024;-75
2023/04/06 09:54:42;;;;;;;17.20;11.07;;;;;;;7.64;50.10;100133.25;5051530;28;20055;-75
2023/04/06 09:57:30;;;;;;;17.55;12.73;;;;;;;7.73;49.89;100143.38;5051953;28;20025;-75
2023/04/06 10:00:09;;;;;;;18.38;12.90;;;;;;;7.77;50.33;100138.97;5051632;28;20120;-75
2023/04/06 10:02:43;;;;;;;16.75;11.57;;;;;;;8.12;51.32;100166.50;5051498;28;20104;-75
2023/04/06 10:05:42;;;;;;;19.95;12.18;;;;;;;8.32;50.42;100150.38;5051490;28;20029;-75
2023/04/06 10:08:10;;;;;;;22.30;13.30;;;;;;;7.96;50.63;100146.19;5051510;28;20021;-76
2023/04/06 10:10:36;;;;;;;19.85;13.38;;;;;;;7.88;51.19;100149.88;5051581;28;20035;-76
2023/04/06 10:13:03;;;;;;;15.38;11.02;;;;;;;7.64;50.94;100147.06;5051477;28;20028;-75
2023/04/06 10:15:30;;;;;;;19.58;12.60;;;;;;;7.37;50.67;100142.59;5051075;28;20541;-77
2023/04/06 10:17:57;;;;;;;19.50;11.85;;;;;;;7.45;50.69;100128.53;5051594;28;20052;-76
2023/04/06 10:20:35;;;;;;;22.40;13.93;;;;;;;7.51;51.91;100148.28;5051079;28;20058;-76
2023/04/06 10:23:21;;;;;;;13.27;10.27;;;;;;;7.70;51.35;100146.03;5051405;28;20021;-76
2023/04/06 10:25:57;;;;;;;17.40;11.07;;;;;;;7.63;50.98;100144.53;5048894;28;20051;-76
2023/04/06 10:28:23;;;;;;;15.40;10.65;;;;;;;7.57;50.73;100145.53;5048537;28;20114;-76
2023/04/06 10:30:55;;;;;;;14.32;11.43;;;;;;;7.56;50.49;100136.03;5031990;28;20393;-76
2023/04/06 10:33:21;;;;;;;20.95;12.35;;;;;;;7.50;51.81;100144.00;5047592;28;20025;-76
2023/04/06 10:35:46;;;;;;;17.45;12.13;;;;;;;7.41;52.09;100116.56;5031226;28;20082;-76
2023/04/06 10:38:14;;;;;;;14.98;10.13;;;;;;;7.90;52.16;100107.44;5048002;28;20124;-76
2023/04/06 10:40:40;;;;;;;20.00;12.85;;;;;;;8.30;51.18;100140.03;5048932;28;20021;-76
2023/04/06 10:43:09;;;;;;;15.18;11.38;;;;;;;8.60;50.82;100132.25;5048819;28;20428;-76
2023/04/06 10:45:36;;;;;;;12.95;9.43;;;;;;;8.36;50.38;100139.84;5048823;28;20036;-76
2023/04/06 10:48:16;;;;;;;17.27;13.05;;;;;;;8.27;49.87;100124.56;5048699;28;20033;-76
2023/04/06 10:50:43;;;;;;;15.25;10.40;;;;;;;8.13;49.30;100126.69;5048348;28;20079;-76
2023/04/06 10:53:09;;;;;;;11.88;8.95;;;;;;;7.65;49.10;100140.13;5047619;28;20067;-76
2023/04/06 10:55:39;;;;;;;13.32;9.55;;;;;;;7.53;48.79;100130.09;5048089;28;20037;-77
2023/04/06 10:58:08;;;;;;;14.40;9.13;;;;;;;7.75;49.61;100116.53;5048651;28;20040;-76
2023/04/06 11:00:34;;;;;;;13.93;10.13;;;;;;;7.58;49.68;100125.63;5048417;28;20133;-76
2023/04/06 11:03:03;;;;;;;12.43;10.35;;;;;;;7.44;49.67;100126.84;5051272;28;20051;-76
2023/04/06 11:05:28;;;;;;;14.15;10.48;;;;;;;7.44;50.21;100113.88;5054296;28;20114;-76
2023/04/06 11:07:54;;;;;;;16.50;11.65;;;;;;;7.39;49.83;100120.94;5054819;28;20110;-76